Thunder radar more information blitzortung!


Radar de pluja more information rain snow radar


Visita la nostra xarxa de llocs de meteo:

Template documentation
and downloads

And another site



Extreme low temperature From: 23-02-2018 00:00 Until: 09:59 warning for: Extreme low temperature Level: Yellow info button

Pagina Historial Weather Underground text

Diari Resum Abril 13, 2016 Unitats:  Mètric    Imperial   Tant
« Previous Dia
SegĂźent Dia »
Diari Setmana Mensual Anual Personalitzada
  Maxima: Minima: Media:
Temperatura: -17.8 °C -12.6 °C -8.3 °C
Punt de rosada: -17.8 °C -17.6 °C -15.7 °C
Humitat: Humidity % 30 % 43 %
Wind Speed: 0 km/h 0 km/h 12.7 km/h
RĂ fegues de vent: 0 km/h - -
Vent:- - SW
Pression baro: 0 hPa 34198.6 hPa -
Precipitacions: 0 mm    
Historical Graphs
 
 
Dades de taula per Abril 13, 2016
Temps Temperatura Punt de rosada Pression baro Vent Wind Speed RĂ fegues de vent Humitat Rainfall Rate (Hourly)
-17.8 °C -17.8 °C 0 hPa Calm     Humidity % 0 mm
00:01 -10.4 °C -14.8 °C 34256.2 hPa SW 6.3 km/h 6.3 km/h 59 % 0 mm
00:05 -11.4 °C -15.2 °C 34222.3 hPa South 2.6 km/h 5.1 km/h 63 % 0 mm
00:15 -11.4 °C -15.2 °C 34222.3 hPa Calm   2.6 km/h 63 % 0 mm
00:35 -11.4 °C -15.2 °C 34198.6 hPa Calm   2.6 km/h 63 % 0 mm
00:45 -11.4 °C -15.2 °C 34198.6 hPa WSW 2.6 km/h 5.1 km/h 63 % 0 mm
00:55 -11.4 °C -15.2 °C 34198.6 hPa WSW 2.6 km/h 7.7 km/h 63 % 0 mm
01:05 -11.4 °C -15.2 °C 34222.3 hPa WSW 2.6 km/h 5.1 km/h 63 % 0 mm
01:15 -11.4 °C -15.2 °C 34222.3 hPa Calm   2.6 km/h 63 % 0 mm
01:25 -11.7 °C -15.1 °C 34198.6 hPa Calm   5.1 km/h 66 % 0 mm
01:45 -11.8 °C -15.2 °C 34222.3 hPa SW 2.6 km/h 5.1 km/h 66 % 0 mm
01:55 -11.9 °C -15.3 °C 34198.6 hPa WSW 2.6 km/h 5.1 km/h 66 % 0 mm
02:05 -11.9 °C -15.2 °C 34198.6 hPa WSW 2.6 km/h 7.7 km/h 67 % 0 mm
02:15 -11.9 °C -15.3 °C 34198.6 hPa WSW 5.1 km/h 5.1 km/h 66 % 0 mm
02:25 -11.9 °C -15.2 °C 34198.6 hPa Calm   5.1 km/h 67 % 0 mm
02:35 -11.9 °C -15.2 °C 34198.6 hPa Calm   2.6 km/h 67 % 0 mm
02:45 -11.9 °C -15.2 °C 34198.6 hPa NW 2.6 km/h 5.1 km/h 67 % 0 mm
02:55 -11.9 °C -15.1 °C 34256.2 hPa Calm     68 % 0 mm
03:05 -11.8 °C -15.1 °C 34256.2 hPa West 2.6 km/h 5.1 km/h 67 % 0 mm
03:15 -11.7 °C -14.9 °C 34256.2 hPa WSW 2.6 km/h 5.1 km/h 67 % 0 mm
03:35 -11.6 °C -14.9 °C 34256.2 hPa SW 2.6 km/h 5.1 km/h 67 % 0 mm
04:05 -11.2 °C -14.4 °C 34256.2 hPa Calm   2.6 km/h 68 % 0 mm
04:15 -11 °C -14.2 °C 34256.2 hPa SW 2.6 km/h 5.1 km/h 68 % 0 mm
04:25 -10.8 °C -14 °C 34256.2 hPa South 2.6 km/h 5.1 km/h 68 % 0 mm
04:35 -10.3 °C -13.6 °C 34256.2 hPa South 2.6 km/h 7.7 km/h 67 % 0 mm
04:45 -9.4 °C -12.9 °C 34256.2 hPa SE 5.1 km/h 5.1 km/h 66 % 0 mm
04:55 -9.1 °C -12.7 °C 34256.2 hPa SW 5.1 km/h 10.3 km/h 65 % 0 mm
05:05 -8.7 °C -12.5 °C 34256.2 hPa WSW 7.7 km/h 10.3 km/h 64 % 0 mm
05:15 -8.4 °C -12.8 °C 34256.2 hPa SW 7.7 km/h 15.6 km/h 60 % 0 mm
05:25 -8.4 °C -13.3 °C 34256.2 hPa WSW 7.7 km/h 20.8 km/h 56 % 0 mm
05:35 -8.2 °C -13.4 °C 34256.2 hPa WSW 12.9 km/h 15.6 km/h 54 % 0 mm
10:37 -8.2 °C -13.4 °C 34256.2 hPa WNW 11.9 km/h 12.7 km/h 54 % 0 mm
10:42 -8.1 °C -13.7 °C 34256.2 hPa North 12.7 km/h 12.7 km/h 52 % 0 mm
10:47 -8.1 °C -13.7 °C 34256.2 hPa West 34.1 km/h 34.1 km/h 52 % 0 mm
11:02 -7.4 °C -13.2 °C 34256.2 hPa West 11.9 km/h 11.9 km/h 51 % 0 mm
11:07 -7.4 °C -13.2 °C 34256.2 hPa West 11.1 km/h 11.1 km/h 51 % 0 mm
11:12 -7.4 °C -13.2 °C 34256.2 hPa WSW 11.9 km/h 11.9 km/h 51 % 0 mm
11:17 -7.4 °C -13.2 °C 34256.2 hPa West 11.9 km/h 14 km/h 51 % 0 mm
11:22 -7.4 °C -13.2 °C 34256.2 hPa SSW 15.3 km/h 15.3 km/h 51 % 0 mm
11:27 -7.5 °C -13.7 °C 34256.2 hPa WSW 15 km/h 15 km/h 48 % 0 mm
11:32 -7.5 °C -13.7 °C 34256.2 hPa SW 20.9 km/h 20.9 km/h 48 % 0 mm
11:37 -7.4 °C -13.8 °C 34256.2 hPa West 15 km/h 15 km/h 47 % 0 mm
11:42 -7.4 °C -13.8 °C 34256.2 hPa SW 16.1 km/h 16.1 km/h 47 % 0 mm
11:47 -7.4 °C -13.8 °C 34256.2 hPa SW 8.5 km/h 8.5 km/h 47 % 0 mm
11:52 -7.2 °C -13.8 °C 34256.2 hPa NNW 15 km/h 15 km/h 46 % 0 mm
11:57 -7.2 °C -13.8 °C 34256.2 hPa WSW 15 km/h 15 km/h 46 % 0 mm
12:02 -6.9 °C -13.6 °C 34256.2 hPa SW 15.3 km/h 15.3 km/h 46 % 0 mm
12:07 -6.9 °C -13.5 °C 34256.2 hPa WSW 19.2 km/h 19.2 km/h 46 % 0 mm
12:12 -6.9 °C -13.7 °C 34256.2 hPa West 15 km/h 15 km/h 45 % 0 mm
12:17 -6.9 °C -13.7 °C 34256.2 hPa WSW 20.9 km/h 20.9 km/h 45 % 0 mm
12:22 -6.8 °C -13.8 °C 34256.2 hPa NW 11.9 km/h 11.9 km/h 44 % 0 mm
12:27 -6.8 °C -13.8 °C 34256.2 hPa SSW 12.7 km/h 12.7 km/h 44 % 0 mm
12:32 -6.9 °C -14.1 °C 34256.2 hPa WSW 17.9 km/h 17.9 km/h 43 % 0 mm
12:42 -6.8 °C -14 °C 34256.2 hPa West 17.9 km/h 17.9 km/h 43 % 0 mm
12:47 -6.7 °C -14.1 °C 34256.2 hPa NNW 35.7 km/h 35.7 km/h 42 % 0 mm
12:52 -6.7 °C -14.1 °C 34256.2 hPa WSW 15 km/h 15 km/h 42 % 0 mm
12:57 -6.7 °C -14.1 °C 34256.2 hPa WSW 17.9 km/h 17.9 km/h 42 % 0 mm
13:02 -6.7 °C -14.1 °C 34256.2 hPa West 17.9 km/h 17.9 km/h 42 % 0 mm
13:07 -6.6 °C -14.2 °C 34256.2 hPa WSW 20.9 km/h 20.9 km/h 41 % 0 mm
13:12 -6.6 °C -14.3 °C 34256.2 hPa West 23.8 km/h 23.8 km/h 40 % 0 mm
13:17 -6.7 °C -14.4 °C 34256.2 hPa WSW 15 km/h 15 km/h 40 % 0 mm
13:22 -6.5 °C -14.3 °C 34256.2 hPa WSW 22.5 km/h 22.5 km/h 40 % 0 mm
13:27 -6.2 °C -14.1 °C 34256.2 hPa WSW 19.6 km/h 19.6 km/h 40 % 0 mm
13:32 -6.1 °C -13.9 °C 34256.2 hPa WSW 15 km/h 15 km/h 40 % 0 mm
13:37 -6.2 °C -14.3 °C 34256.2 hPa NNW 15 km/h 15 km/h 39 % 0 mm
13:42 -6.2 °C -14.2 °C 34256.2 hPa WSW 34.1 km/h 34.1 km/h 39 % 0 mm
13:47 -6.5 °C -14.7 °C 34222.3 hPa SW 23.8 km/h 23.8 km/h 38 % 0 mm
13:52 -6.1 °C -14.2 °C 34222.3 hPa West 15 km/h 15 km/h 39 % 0 mm
13:57 -6.2 °C -14.3 °C 34222.3 hPa West 20.9 km/h 20.9 km/h 39 % 0 mm
14:02 -6.1 °C -14.4 °C 34256.2 hPa WSW 15 km/h 15 km/h 38 % 0 mm
14:07 -6.1 °C -14.3 °C 34256.2 hPa NW 15 km/h 15 km/h 38 % 0 mm
14:17 -6.2 °C -14.7 °C 34256.2 hPa WSW 20.9 km/h 20.9 km/h 37 % 0 mm
14:22 -6.1 °C -14.6 °C 34256.2 hPa West 35.7 km/h 35.7 km/h 37 % 0 mm
14:27 -6.2 °C -14.6 °C 34256.2 hPa WNW 20.9 km/h 20.9 km/h 37 % 0 mm
14:32 -6.1 °C -14.6 °C 34256.2 hPa WSW 14 km/h 14 km/h 37 % 0 mm
14:37 -6.3 °C -14.7 °C 34256.2 hPa East 17.9 km/h 17.9 km/h 37 % 0 mm
14:42 -6.4 °C -15.1 °C 34256.2 hPa WSW 22.5 km/h 22.5 km/h 36 % 0 mm
14:47 -6.4 °C -15.1 °C 34256.2 hPa WNW 26.9 km/h 26.9 km/h 36 % 0 mm
14:52 -6.3 °C -15 °C 34256.2 hPa WNW 23.8 km/h 23.8 km/h 36 % 0 mm
14:57 -5.8 °C -14.3 °C 34256.2 hPa West 25.4 km/h 25.4 km/h 37 % 0 mm
15:02 -5.9 °C -15.1 °C 34256.2 hPa SW 26.9 km/h 26.9 km/h 34 % 0 mm
15:07 -6 °C -14.9 °C 34256.2 hPa SW 20.9 km/h 20.9 km/h 35 % 0 mm
15:12 -6.3 °C -15.4 °C 34256.2 hPa SSW 20.9 km/h 20.9 km/h 34 % 0 mm
15:22 -6.5 °C -15.4 °C 34256.2 hPa West 32.8 km/h 32.8 km/h 35 % 0 mm
15:27 -6.6 °C -15.4 °C 34256.2 hPa West 15 km/h 15 km/h 35 % 0 mm
15:32 -6.2 °C -14.9 °C 34256.2 hPa WSW 17.9 km/h 17.9 km/h 36 % 0 mm
15:37 -6.3 °C -15.2 °C 34256.2 hPa WNW 26.9 km/h 26.9 km/h 35 % 0 mm
15:42 -6.3 °C -15.2 °C 34256.2 hPa West 26.9 km/h 26.9 km/h 35 % 0 mm
15:47 -6 °C -14.7 °C 34256.2 hPa West 11.9 km/h 11.9 km/h 36 % 0 mm
15:52 -5.9 °C -15.1 °C 34256.2 hPa West 22 km/h 22 km/h 34 % 0 mm
16:02 -6.1 °C -15.2 °C 34256.2 hPa WSW 20.9 km/h 20.9 km/h 34 % 0 mm
16:07 -6.2 °C -15.4 °C 34256.2 hPa WSW 25.9 km/h 25.9 km/h 34 % 0 mm
16:12 -6.3 °C -15.4 °C 34256.2 hPa WSW 23.8 km/h 23.8 km/h 34 % 0 mm
16:17 -6.3 °C -15.4 °C 34256.2 hPa SW 25.9 km/h 25.9 km/h 34 % 0 mm
16:22 -6.3 °C -15.4 °C 34256.2 hPa NW 17.9 km/h 17.9 km/h 34 % 0 mm
16:27 -6.1 °C -15.2 °C 34256.2 hPa WSW 23.8 km/h 23.8 km/h 34 % 0 mm
16:32 -6.1 °C -15.2 °C 34256.2 hPa WSW 15 km/h 15 km/h 34 % 0 mm
16:42 -5.7 °C -15.2 °C 34256.2 hPa West 17.9 km/h 17.9 km/h 33 % 0 mm
16:47 -5.9 °C -15.6 °C 34256.2 hPa SSW 32.8 km/h 32.8 km/h 32 % 0 mm
16:52 -6 °C -15.7 °C 34256.2 hPa SW 32.8 km/h 32.8 km/h 32 % 0 mm
16:57 -5.8 °C -15.5 °C 34256.2 hPa SSW 17.9 km/h 17.9 km/h 32 % 0 mm
17:02 -5.9 °C -15.6 °C 34256.2 hPa WSW 20.9 km/h 20.9 km/h 32 % 0 mm
17:07 -5.8 °C -15.7 °C 34256.2 hPa WNW 23.8 km/h 23.8 km/h 31 % 0 mm
17:12 -6.2 °C -15.8 °C 34256.2 hPa WSW 32.8 km/h 32.8 km/h 32 % 0 mm
17:18 -6.4 °C -16 °C 34222.3 hPa SW 29.8 km/h 29.8 km/h 32 % 0 mm
17:22 -6.3 °C -15.9 °C 34222.3 hPa West 14 km/h 14 km/h 32 % 0 mm
17:27 -6.3 °C -15.9 °C 34222.3 hPa NW 20.9 km/h 20.9 km/h 32 % 0 mm
17:32 -6.2 °C -15.8 °C 34256.2 hPa WSW 20.9 km/h 20.9 km/h 32 % 0 mm
17:37 -6.2 °C -15.8 °C 34256.2 hPa WSW 15.6 km/h 15.6 km/h 32 % 0 mm
17:47 -5.9 °C -15.6 °C 34256.2 hPa WSW 11.9 km/h 11.9 km/h 32 % 0 mm
17:53 -5.9 °C -15.6 °C 34256.2 hPa West 23.8 km/h 23.8 km/h 32 % 0 mm
17:58 -6.1 °C -16 °C 34256.2 hPa West 19.2 km/h 19.2 km/h 31 % 0 mm
18:03 -6.1 °C -15.9 °C 34256.2 hPa WSW 20.9 km/h 20.9 km/h 31 % 0 mm
18:18 -5.9 °C -15.8 °C 34256.2 hPa SW 20.9 km/h 20.9 km/h 31 % 0 mm
18:23 -6 °C -15.9 °C 34256.2 hPa SW 29.8 km/h 29.8 km/h 31 % 0 mm
18:28 -6.1 °C -16.2 °C 34256.2 hPa West 20.9 km/h 20.9 km/h 30 % 0 mm
18:33 -6.1 °C -16.2 °C 34222.3 hPa WSW 23.8 km/h 23.8 km/h 30 % 0 mm
18:38 -6.1 °C -16.2 °C 34222.3 hPa WSW 20.9 km/h 20.9 km/h 30 % 0 mm
18:43 -6.1 °C -16.3 °C 34222.3 hPa SW 26.9 km/h 26.9 km/h 30 % 0 mm
18:48 -6.2 °C -16.3 °C 34256.2 hPa WSW 17.9 km/h 17.9 km/h 30 % 0 mm
18:53 -6.2 °C -16.3 °C 34256.2 hPa SSW 17.9 km/h 17.9 km/h 30 % 0 mm
18:58 -6.2 °C -16.3 °C 34256.2 hPa WNW 15 km/h 15 km/h 30 % 0 mm
19:03 -6.3 °C -16.4 °C 34256.2 hPa West 23.8 km/h 23.8 km/h 30 % 0 mm
19:08 -6.4 °C -16.5 °C 34256.2 hPa WSW 15 km/h 15 km/h 30 % 0 mm
19:13 -6.6 °C -16.6 °C 34256.2 hPa West 15 km/h 15 km/h 30 % 0 mm
19:15 -10 °C -17.3 °C 34395 hPa NNE 2.6 km/h 5.1 km/h 41 % 0 mm
19:18 -6.6 °C -16.7 °C 34256.2 hPa West 17.9 km/h 17.9 km/h 30 % 0 mm
19:25 -10.3 °C -17.3 °C 34395 hPa WSW 2.6 km/h 5.1 km/h 42 % 0 mm
19:33 -6.9 °C -16.7 °C 34222.3 hPa WSW 23.8 km/h 23.8 km/h 31 % 0 mm
19:35 -10.1 °C -17.2 °C 34395 hPa WSW 5.1 km/h 7.7 km/h 42 % 0 mm
19:38 -7.1 °C -16.8 °C 34222.3 hPa WNW 17.9 km/h 17.9 km/h 31 % 0 mm
19:43 -7.1 °C -16.8 °C 34222.3 hPa WSW 15 km/h 15 km/h 31 % 0 mm
19:45 -10.3 °C -17.4 °C 34395 hPa WSW 2.6 km/h 5.1 km/h 42 % 0 mm
19:48 -7.2 °C -16.9 °C 34256.2 hPa WSW 29.8 km/h 29.8 km/h 31 % 0 mm
19:53 -7.2 °C -16.7 °C 34256.2 hPa West 25.9 km/h 25.9 km/h 32 % 0 mm
19:55 -10.4 °C -17.3 °C 34395 hPa Calm   2.6 km/h 43 % 0 mm
19:58 -7.3 °C -16.8 °C 34256.2 hPa West 17.9 km/h 17.9 km/h 32 % 0 mm
20:03 -7.3 °C -16.8 °C 34256.2 hPa West 15 km/h 15 km/h 32 % 0 mm
20:05 -10.3 °C -17.4 °C 34395 hPa West 2.6 km/h 5.1 km/h 42 % 0 mm
20:08 -7.4 °C -16.8 °C 34256.2 hPa WSW 20.9 km/h 20.9 km/h 32 % 0 mm
20:13 -7.5 °C -16.7 °C 34256.2 hPa WSW 9 km/h 9 km/h 33 % 0 mm
20:15 -10.6 °C -17.4 °C 34395 hPa West 5.1 km/h 7.7 km/h 43 % 0 mm
20:18 -7.6 °C -16.8 °C 34293.4 hPa WSW 11.9 km/h 11.9 km/h 33 % 0 mm
20:23 -7.7 °C -16.8 °C 34293.4 hPa WSW 11.9 km/h 11.9 km/h 33 % 0 mm
20:25 -10.7 °C -17.3 °C 34361.1 hPa East 2.6 km/h 5.1 km/h 44 % 0 mm
20:28 -7.7 °C -16.9 °C 34293.4 hPa West 11.9 km/h 11.9 km/h 33 % 0 mm
20:33 -7.8 °C -16.8 °C 34327.3 hPa WSW 11.9 km/h 11.9 km/h 34 % 0 mm
20:35 -10.8 °C -17.4 °C 34395 hPa ENE 5.1 km/h 7.7 km/h 44 % 0 mm
20:38 -7.9 °C -16.8 °C 34327.3 hPa WSW 9 km/h 9 km/h 34 % 0 mm
20:43 -8 °C -16.9 °C 34327.3 hPa SW 6 km/h 6 km/h 34 % 0 mm
20:45 -10.9 °C -17.4 °C 34395 hPa Calm   2.6 km/h 45 % 0 mm
20:53 -8.2 °C -17.1 °C 34327.3 hPa WSW 6.3 km/h 6.3 km/h 34 % 0 mm
20:55 -10.9 °C -17.4 °C 34395 hPa North 2.6 km/h 2.6 km/h 45 % 0 mm
20:58 -8.2 °C -16.9 °C 34327.3 hPa SW 9.8 km/h 9.8 km/h 35 % 0 mm
21:08 -8.4 °C -16.8 °C 34327.3 hPa SSW 11.9 km/h 11.9 km/h 36 % 0 mm
21:10 -11.1 °C -17.3 °C 34395 hPa Calm   2.6 km/h 46 % 0 mm
21:13 -8.5 °C -16.9 °C 34327.3 hPa SW 9 km/h 9 km/h 36 % 0 mm
21:18 -8.5 °C -16.9 °C 34327.3 hPa SW 6.3 km/h 6.3 km/h 36 % 0 mm
21:20 -11.1 °C -17.4 °C 34395 hPa Calm   2.6 km/h 46 % 0 mm
21:23 -8.6 °C -17 °C 34327.3 hPa WSW 11.9 km/h 11.9 km/h 36 % 0 mm
21:28 -8.6 °C -17 °C 34327.3 hPa West 6 km/h 6 km/h 36 % 0 mm
21:30 -11.2 °C -17.3 °C 34395 hPa NNE 2.6 km/h 5.1 km/h 47 % 0 mm
21:33 -8.6 °C -16.8 °C 34293.4 hPa SW 6 km/h 6 km/h 37 % 0 mm
21:38 -8.7 °C -16.8 °C 34293.4 hPa WSW 6 km/h 6 km/h 37 % 0 mm
21:40 -11.3 °C -17.4 °C 34395 hPa Calm   2.6 km/h 47 % 0 mm
21:43 -8.7 °C -16.9 °C 34293.4 hPa SW 9 km/h 9 km/h 37 % 0 mm
21:48 -8.8 °C -16.9 °C 34327.3 hPa SW 9 km/h 9 km/h 37 % 0 mm
21:50 -11.3 °C -17.3 °C 34395 hPa Calm   5.1 km/h 48 % 0 mm
21:53 -8.8 °C -17 °C 34327.3 hPa SW 11.9 km/h 11.9 km/h 37 % 0 mm
21:58 -8.8 °C -16.9 °C 34327.3 hPa SW 9.8 km/h 12.7 km/h 37 % 0 mm
22:00 -11.4 °C -17.1 °C 34395 hPa Calm   2.6 km/h 49 % 0 mm
22:03 -8.8 °C -16.8 °C 34361.1 hPa SW 9.3 km/h 9.3 km/h 38 % 0 mm
22:08 -8.8 °C -16.8 °C 34361.1 hPa SW 11.1 km/h 11.1 km/h 38 % 0 mm
22:10 -11.4 °C -17.1 °C 34395 hPa North 2.6 km/h 2.6 km/h 50 % 0 mm
22:13 -8.9 °C -16.8 °C 34361.1 hPa SW 11.9 km/h 11.9 km/h 38 % 0 mm
22:18 -8.9 °C -16.8 °C 34361.1 hPa SW 10.3 km/h 10.3 km/h 38 % 0 mm
22:20 -11.4 °C -17.1 °C 34395 hPa Calm     50 % 0 mm
22:23 -9.1 °C -17 °C 34361.1 hPa WSW 11.9 km/h 11.9 km/h 38 % 0 mm
22:28 -9.2 °C -16.9 °C 34361.1 hPa SSW 12.7 km/h 12.7 km/h 39 % 0 mm
22:30 -11.6 °C -17 °C 34395 hPa Calm     51 % 0 mm
22:33 -9.2 °C -16.9 °C 34361.1 hPa SW 11.9 km/h 11.9 km/h 39 % 0 mm
22:38 -9.3 °C -16.8 °C 34361.1 hPa WSW 15 km/h 15 km/h 40 % 0 mm
22:40 -11.6 °C -17.1 °C 34395 hPa ENE 5.1 km/h 5.1 km/h 51 % 0 mm
22:43 -9.3 °C -16.8 °C 34361.1 hPa WSW 11.9 km/h 11.9 km/h 40 % 0 mm
22:48 -9.4 °C -16.9 °C 34361.1 hPa West 11.9 km/h 11.9 km/h 40 % 0 mm
22:50 -11.8 °C -17.1 °C 34395 hPa Calm   2.6 km/h 52 % 0 mm
22:53 -9.4 °C -16.9 °C 34361.1 hPa SW 15 km/h 15 km/h 40 % 0 mm
22:58 -9.4 °C -16.9 °C 34361.1 hPa West 9 km/h 9 km/h 40 % 0 mm
23:00 -12 °C -17.3 °C 34395 hPa East 2.6 km/h 2.6 km/h 52 % 0 mm
23:03 -9.5 °C -17 °C 34395 hPa West 9.8 km/h 9.8 km/h 40 % 0 mm
23:08 -9.5 °C -17 °C 34395 hPa WSW 6.8 km/h 6.8 km/h 40 % 0 mm
23:10 -12.2 °C -17.3 °C 34395 hPa Calm   2.6 km/h 53 % 0 mm
23:13 -9.6 °C -17.1 °C 34395 hPa SW 3.1 km/h 3.1 km/h 40 % 0 mm
23:18 -9.6 °C -17.1 °C 34361.1 hPa WSW 6 km/h 6 km/h 40 % 0 mm
23:20 -12.3 °C -17.4 °C 34395 hPa ENE 2.6 km/h 5.1 km/h 53 % 0 mm
23:28 -9.7 °C -17 °C 34361.1 hPa NNE 4.2 km/h 4.2 km/h 41 % 0 mm
23:30 -12.4 °C -17.4 °C 34395 hPa Calm   2.6 km/h 54 % 0 mm
23:33 -9.8 °C -17.1 °C 34395 hPa NE 5.1 km/h 5.1 km/h 41 % 0 mm
23:38 -9.8 °C -17.1 °C 34395 hPa SW 4.2 km/h 4.2 km/h 41 % 0 mm
23:40 -12.6 °C -17.6 °C 34395 hPa Calm     54 % 0 mm
23:50 -12.6 °C -17.6 °C 34395 hPa Calm     54 % 0 mm
23:53 -9.9 °C -17.2 °C 34395 hPa WNW 3.1 km/h   41 % 0 mm
23:58 -9.9 °C -17.2 °C 34395 hPa WNW 3.1 km/h   41 % 0 mm
Meteo Sesrovires
Elogis d' Weather Underground - 3.5 mb

Guio original per  Jim McMurry - jmcmurry@mwt.net Adaptat per a la plantilla per  Wim van der Kuil - Leuven-Template.eu

Trobareu la nostra informacio del temps tambe a:

Weather Underground

AWEKAS